Alice Paul 2 — FQDT — position and weather

sailwx.info

Track history (hours):
 
Tides and Currents Weather Stations Pressure Air Temp Water Temp Dewpoint Dewpoint Depression Visibility Wind Speed Wind Dir Waves Ship Positions

Alice Paul 2

Last reported at 2017-Sep-21 15:29 UTC. Time now 2017-Sep-23 16:41 UTC.
Position N 47°44' W 003°22'.

Length 13 m.

Type: Fishing. MMSI: 228153900.

Date/timePositionNaut miles runAvg speedWind from/ knotsBaromVisibWave heightAir tempDewpointWater temp
2017-Sep-21 15:29N 47°44' W 003°22'0 0.0
2017-Sep-21 14:59N 47°44' W 003°22'0 0.0
2017-Sep-21 14:29N 47°44' W 003°22'0 0.0
2017-Sep-21 13:59N 47°44' W 003°22'0 0.0
2017-Sep-21 13:29N 47°44' W 003°22'0 0.0
2017-Sep-21 12:59N 47°44' W 003°22'0 0.0
2017-Sep-21 12:29N 47°44' W 003°22'0 0.0
2017-Sep-21 11:59N 47°44' W 003°22'0 0.0
2017-Sep-21 11:29N 47°44' W 003°22'0 0.0
2017-Sep-21 10:59N 47°44' W 003°22'0 0.0
2017-Sep-21 10:29N 47°44' W 003°22'0 0.0
2017-Sep-21 09:59N 47°44' W 003°22'0 0.0
2017-Sep-21 09:29N 47°44' W 003°22'0 0.0
2017-Sep-21 08:59N 47°44' W 003°22'0 0.0
2017-Sep-21 08:29N 47°44' W 003°22'0 0.0
2017-Sep-20 15:07N 47°44' W 003°22'0 0.0
2017-Sep-20 14:58N 47°44' W 003°22'0 0.0
2017-Sep-20 13:58N 47°44' W 003°22'0 0.0
2017-Sep-20 13:28N 47°44' W 003°22'0 0.0
2017-Sep-20 12:58N 47°44' W 003°22'0 0.0
2017-Sep-20 12:28N 47°44' W 003°22'0 0.0
2017-Sep-20 11:58N 47°44' W 003°22'0 0.0
2017-Sep-20 11:28N 47°44' W 003°22'0 0.0
2017-Sep-20 10:58N 47°44' W 003°22'0 0.0
2017-Sep-20 10:28N 47°44' W 003°22'0 0.0
2017-Sep-20 09:58N 47°44' W 003°22'0 0.0
2017-Sep-20 09:28N 47°44' W 003°22'0 0.0
2017-Sep-20 08:58N 47°44' W 003°22'0 0.0
2017-Sep-20 08:28N 47°44' W 003°22'0 0.0
2017-Sep-20 07:58N 47°44' W 003°22'0 0.0
2017-Sep-20 07:28N 47°44' W 003°22'0 0.0
2017-Sep-19 14:45N 47°44' W 003°22'0 0.0
2017-Sep-19 14:30N 47°44' W 003°22'0 0.0
2017-Sep-19 14:00N 47°44' W 003°22'0 0.0
2017-Sep-19 13:30N 47°44' W 003°22'0 0.0
2017-Sep-19 13:01N 47°44' W 003°22'0 0.0
2017-Sep-19 12:30N 47°44' W 003°22'0 0.0
2017-Sep-19 12:00N 47°44' W 003°22'0 0.0
2017-Sep-19 11:30N 47°44' W 003°22'0 0.0
2017-Sep-19 11:00N 47°44' W 003°22'0 0.0
2017-Sep-19 10:30N 47°44' W 003°22'0 0.0
2017-Sep-19 10:00N 47°44' W 003°22'0 0.0
2017-Sep-19 09:30N 47°44' W 003°22'0 0.0
2017-Sep-19 09:00N 47°44' W 003°22'0 0.0
2017-Sep-19 08:30N 47°44' W 003°22'0 0.0
2017-Sep-19 08:00N 47°44' W 003°22'0 0.0
2017-Sep-18 14:11N 47°44' W 003°22'0 0.0
2017-Sep-18 13:59N 47°44' W 003°22'0 0.0
2017-Sep-18 13:29N 47°44' W 003°22'0 0.0
2017-Sep-18 12:59N 47°44' W 003°22'0 0.0
2017-Sep-18 12:29N 47°44' W 003°22'0 0.0
2017-Sep-18 11:59N 47°44' W 003°22'0 0.0
2017-Sep-18 11:29N 47°44' W 003°22'0 0.0
2017-Sep-18 10:59N 47°44' W 003°22'0 0.0
2017-Sep-18 10:29N 47°44' W 003°22'0 0.0
2017-Sep-18 09:59N 47°44' W 003°22'0 0.0
2017-Sep-18 09:29N 47°44' W 003°22'0 0.0
2017-Sep-18 08:59N 47°44' W 003°22'0 0.0
2017-Sep-18 08:29N 47°44' W 003°22'0 0.0
2017-Sep-18 07:59N 47°44' W 003°22'0 0.0
2017-Sep-18 07:29N 47°44' W 003°22'0 0.0
2017-Sep-18 06:59N 47°44' W 003°22'  
2017-Sep-15 23:32N 47°44' W 003°22'0 0.0
2017-Sep-15 23:29N 47°44' W 003°22'0 0.0
2017-Sep-15 22:59N 47°44' W 003°22'0 0.4
2017-Sep-15 22:29N 47°44' W 003°22'0 0.0
2017-Sep-15 21:59N 47°44' W 003°22'3 7.1
2017-Sep-15 21:30N 47°41' W 003°25'3 0.2
2017-Sep-15 01:42N 47°40' W 003°29'1 5.3
2017-Sep-15 01:29N 47°40' W 003°27'3 5.3
2017-Sep-15 01:00N 47°41' W 003°24'3 5.7
2017-Sep-15 00:29N 47°44' W 003°22'0 0.0
2017-Sep-14 23:59N 47°44' W 003°22'0 0.0
2017-Sep-14 23:30N 47°44' W 003°22'0 0.0
2017-Sep-14 22:59N 47°44' W 003°22'0 0.0
2017-Sep-14 22:30N 47°44' W 003°22'1 1.5
2017-Sep-14 22:01N 47°43' W 003°22'4 7.7
2017-Sep-14 21:31N 47°41' W 003°26'2 0.1
2017-Sep-14 03:16N 47°40' W 003°30'2 5.9
2017-Sep-14 03:00N 47°40' W 003°27'3 6.1
2017-Sep-14 02:30N 47°42' W 003°23'2 4.6
2017-Sep-14 01:59N 47°44' W 003°22'0 0.0
2017-Sep-14 01:29N 47°44' W 003°22'2 4.3
2017-Sep-14 01:00N 47°42' W 003°23'4 7.4
2017-Sep-14 00:30N 47°40' W 003°28'0 0.0
2017-Sep-13 06:51N 47°40' W 003°28'3 7.7
2017-Sep-13 06:29N 47°41' W 003°24'3 5.8
2017-Sep-13 05:58N 47°44' W 003°22'0 0.0
2017-Sep-13 05:28N 47°44' W 003°22'0 0.0
2017-Sep-13 04:58N 47°44' W 003°22'0 0.0
2017-Sep-13 04:28N 47°44' W 003°22'0 0.0
2017-Sep-13 03:58N 47°44' W 003°22'0 0.0
2017-Sep-13 03:28N 47°44' W 003°22'0 0.0
2017-Sep-13 02:58N 47°44' W 003°22'0 0.0
2017-Sep-13 02:28N 47°44' W 003°22'0 0.0
2017-Sep-13 01:58N 47°44' W 003°22'0 0.0
2017-Sep-13 01:28N 47°44' W 003°22'0 0.0
2017-Sep-13 00:58N 47°44' W 003°22'0 0.0
2017-Sep-13 00:28N 47°44' W 003°22'0 0.0
2017-Sep-12 23:58N 47°44' W 003°22'0 0.0
2017-Sep-12 23:28N 47°44' W 003°22'0 0.0
2017-Sep-12 22:58N 47°44' W 003°22'0 0.0
2017-Sep-12 22:28N 47°44' W 003°22'0 0.3
2017-Sep-12 21:58N 47°44' W 003°22'2 5.3
2017-Sep-12 21:30N 47°41' W 003°23'4 0.2
2017-Sep-12 01:01N 47°40' W 003°28'0 2.9
2017-Sep-12 00:57N 47°40' W 003°28'1 3.1
2017-Sep-12 00:30N 47°41' W 003°26'2 4.9
2017-Sep-12 00:00N 47°42' W 003°23'2 4.1
2017-Sep-11 23:29N 47°44' W 003°22'0 0.0
2017-Sep-11 22:59N 47°44' W 003°22'2 5.2
2017-Sep-11 22:30N 47°41' W 003°23'4 7.3
2017-Sep-11 22:00N 47°40' W 003°28'  
Track history (hours):
 
Tides and Currents Weather Stations Pressure Air Temp Water Temp Dewpoint Dewpoint Depression Visibility Wind Speed Wind Dir Waves Ship Positions

Alice Paul 2

Last reported at 2017-Sep-21 15:29 UTC. Time now 2017-Sep-23 16:41 UTC.
Position N 47°44' W 003°22'.

Length 13 m.

Type: Fishing. MMSI: 228153900.

Date/timePositionNaut miles runAvg speedWind from/ knotsBaromVisibWave heightAir tempDewpointWater temp
2017-Sep-21 15:29N 47°44' W 003°22'0 0.0
2017-Sep-21 14:59N 47°44' W 003°22'0 0.0
2017-Sep-21 14:29N 47°44' W 003°22'0 0.0
2017-Sep-21 13:59N 47°44' W 003°22'0 0.0
2017-Sep-21 13:29N 47°44' W 003°22'0 0.0
2017-Sep-21 12:59N 47°44' W 003°22'0 0.0
2017-Sep-21 12:29N 47°44' W 003°22'0 0.0
2017-Sep-21 11:59N 47°44' W 003°22'0 0.0
2017-Sep-21 11:29N 47°44' W 003°22'0 0.0
2017-Sep-21 10:59N 47°44' W 003°22'0 0.0
2017-Sep-21 10:29N 47°44' W 003°22'0 0.0
2017-Sep-21 09:59N 47°44' W 003°22'0 0.0
2017-Sep-21 09:29N 47°44' W 003°22'0 0.0
2017-Sep-21 08:59N 47°44' W 003°22'0 0.0
2017-Sep-21 08:29N 47°44' W 003°22'0 0.0
2017-Sep-20 15:07N 47°44' W 003°22'0 0.0
2017-Sep-20 14:58N 47°44' W 003°22'0 0.0
2017-Sep-20 13:58N 47°44' W 003°22'0 0.0
2017-Sep-20 13:28N 47°44' W 003°22'0 0.0
2017-Sep-20 12:58N 47°44' W 003°22'0 0.0
2017-Sep-20 12:28N 47°44' W 003°22'0 0.0
2017-Sep-20 11:58N 47°44' W 003°22'0 0.0
2017-Sep-20 11:28N 47°44' W 003°22'0 0.0
2017-Sep-20 10:58N 47°44' W 003°22'0 0.0
2017-Sep-20 10:28N 47°44' W 003°22'0 0.0
2017-Sep-20 09:58N 47°44' W 003°22'0 0.0
2017-Sep-20 09:28N 47°44' W 003°22'0 0.0
2017-Sep-20 08:58N 47°44' W 003°22'0 0.0
2017-Sep-20 08:28N 47°44' W 003°22'0 0.0
2017-Sep-20 07:58N 47°44' W 003°22'0 0.0
2017-Sep-20 07:28N 47°44' W 003°22'0 0.0
2017-Sep-19 14:45N 47°44' W 003°22'0 0.0
2017-Sep-19 14:30N 47°44' W 003°22'0 0.0
2017-Sep-19 14:00N 47°44' W 003°22'0 0.0
2017-Sep-19 13:30N 47°44' W 003°22'0 0.0
2017-Sep-19 13:01N 47°44' W 003°22'0 0.0
2017-Sep-19 12:30N 47°44' W 003°22'0 0.0
2017-Sep-19 12:00N 47°44' W 003°22'0 0.0
2017-Sep-19 11:30N 47°44' W 003°22'0 0.0
2017-Sep-19 11:00N 47°44' W 003°22'0 0.0
2017-Sep-19 10:30N 47°44' W 003°22'0 0.0
2017-Sep-19 10:00N 47°44' W 003°22'0 0.0
2017-Sep-19 09:30N 47°44' W 003°22'0 0.0
2017-Sep-19 09:00N 47°44' W 003°22'0 0.0
2017-Sep-19 08:30N 47°44' W 003°22'0 0.0
2017-Sep-19 08:00N 47°44' W 003°22'0 0.0
2017-Sep-18 14:11N 47°44' W 003°22'0 0.0
2017-Sep-18 13:59N 47°44' W 003°22'0 0.0
2017-Sep-18 13:29N 47°44' W 003°22'0 0.0
2017-Sep-18 12:59N 47°44' W 003°22'0 0.0
2017-Sep-18 12:29N 47°44' W 003°22'0 0.0
2017-Sep-18 11:59N 47°44' W 003°22'0 0.0
2017-Sep-18 11:29N 47°44' W 003°22'0 0.0
2017-Sep-18 10:59N 47°44' W 003°22'0 0.0
2017-Sep-18 10:29N 47°44' W 003°22'0 0.0
2017-Sep-18 09:59N 47°44' W 003°22'0 0.0
2017-Sep-18 09:29N 47°44' W 003°22'0 0.0
2017-Sep-18 08:59N 47°44' W 003°22'0 0.0
2017-Sep-18 08:29N 47°44' W 003°22'0 0.0
2017-Sep-18 07:59N 47°44' W 003°22'0 0.0
2017-Sep-18 07:29N 47°44' W 003°22'0 0.0
2017-Sep-18 06:59N 47°44' W 003°22'  
2017-Sep-15 23:32N 47°44' W 003°22'0 0.0
2017-Sep-15 23:29N 47°44' W 003°22'0 0.0
2017-Sep-15 22:59N 47°44' W 003°22'0 0.4
2017-Sep-15 22:29N 47°44' W 003°22'0 0.0
2017-Sep-15 21:59N 47°44' W 003°22'3 7.1
2017-Sep-15 21:30N 47°41' W 003°25'3 0.2
2017-Sep-15 01:42N 47°40' W 003°29'1 5.3
2017-Sep-15 01:29N 47°40' W 003°27'3 5.3
2017-Sep-15 01:00N 47°41' W 003°24'3 5.7
2017-Sep-15 00:29N 47°44' W 003°22'0 0.0
2017-Sep-14 23:59N 47°44' W 003°22'0 0.0
2017-Sep-14 23:30N 47°44' W 003°22'0 0.0
2017-Sep-14 22:59N 47°44' W 003°22'0 0.0
2017-Sep-14 22:30N 47°44' W 003°22'1 1.5
2017-Sep-14 22:01N 47°43' W 003°22'4 7.7
2017-Sep-14 21:31N 47°41' W 003°26'2 0.1
2017-Sep-14 03:16N 47°40' W 003°30'2 5.9
2017-Sep-14 03:00N 47°40' W 003°27'3 6.1
2017-Sep-14 02:30N 47°42' W 003°23'2 4.6
2017-Sep-14 01:59N 47°44' W 003°22'0 0.0
2017-Sep-14 01:29N 47°44' W 003°22'2 4.3
2017-Sep-14 01:00N 47°42' W 003°23'4 7.4
2017-Sep-14 00:30N 47°40' W 003°28'0 0.0
2017-Sep-13 06:51N 47°40' W 003°28'3 7.7
2017-Sep-13 06:29N 47°41' W 003°24'3 5.8
2017-Sep-13 05:58N 47°44' W 003°22'0 0.0
2017-Sep-13 05:28N 47°44' W 003°22'0 0.0
2017-Sep-13 04:58N 47°44' W 003°22'0 0.0
2017-Sep-13 04:28N 47°44' W 003°22'0 0.0
2017-Sep-13 03:58N 47°44' W 003°22'0 0.0
2017-Sep-13 03:28N 47°44' W 003°22'0 0.0
2017-Sep-13 02:58N 47°44' W 003°22'0 0.0
2017-Sep-13 02:28N 47°44' W 003°22'0 0.0
2017-Sep-13 01:58N 47°44' W 003°22'0 0.0
2017-Sep-13 01:28N 47°44' W 003°22'0 0.0
2017-Sep-13 00:58N 47°44' W 003°22'0 0.0
2017-Sep-13 00:28N 47°44' W 003°22'0 0.0
2017-Sep-12 23:58N 47°44' W 003°22'0 0.0
2017-Sep-12 23:28N 47°44' W 003°22'0 0.0
2017-Sep-12 22:58N 47°44' W 003°22'0 0.0
2017-Sep-12 22:28N 47°44' W 003°22'0 0.3
2017-Sep-12 21:58N 47°44' W 003°22'2 5.3
2017-Sep-12 21:30N 47°41' W 003°23'4 0.2
2017-Sep-12 01:01N 47°40' W 003°28'0 2.9
2017-Sep-12 00:57N 47°40' W 003°28'1 3.1
2017-Sep-12 00:30N 47°41' W 003°26'2 4.9
2017-Sep-12 00:00N 47°42' W 003°23'2 4.1
2017-Sep-11 23:29N 47°44' W 003°22'0 0.0
2017-Sep-11 22:59N 47°44' W 003°22'2 5.2
2017-Sep-11 22:30N 47°41' W 003°23'4 7.3
2017-Sep-11 22:00N 47°40' W 003°28'  

Dump ship's entire track history